Time;durP1;ratioP1;P1;durP2;ratioP2;P2;SDS_P1;SDS_P2;PMS_P1;PMS_P2;Temp;Humidity;BMP_temperature;BMP_pressure;BME280_temperature;BME280_humidity;BME280_pressure;Samples;Min_cycle;Max_cycle;Signal;HPM_P1;HPM_P2
2024/04/01 00:00:43;;;;;;;30.13;6.88;;;11.50;80.60;;;;;;4992583;28;20107;-85
2024/04/01 00:03:09;;;;;;;29.30;7.72;;;11.50;81.30;;;;;;4991856;28;20161;-84
2024/04/01 00:05:34;;;;;;;38.15;7.63;;;11.40;82.00;;;;;;4992197;28;20034;-85
2024/04/01 00:08:00;;;;;;;27.83;6.35;;;11.50;82.00;;;;;;4992371;28;20042;-85
2024/04/01 00:10:26;;;;;;;33.85;7.20;;;11.60;81.30;;;;;;4993140;28;20038;-85
2024/04/01 00:12:57;;;;;;;35.72;6.28;;;11.70;80.80;;;;;;4991470;28;20495;-85
2024/04/01 00:15:23;;;;;;;29.42;6.10;;;11.80;79.70;;;;;;4991734;28;20035;-85
2024/04/01 00:17:49;;;;;;;38.55;7.30;;;11.90;78.60;;;;;;4995817;28;20045;-86
2024/04/01 00:20:15;;;;;;;45.10;8.00;;;12.00;77.60;;;;;;4995158;28;20395;-86
2024/04/01 00:22:40;;;;;;;33.35;6.97;;;12.10;76.90;;;;;;5012404;28;20018;-86
2024/04/01 00:25:06;;;;;;;34.25;7.82;;;12.30;76.00;;;;;;5011372;28;20423;-86
2024/04/01 00:27:33;;;;;;;29.30;6.85;;;12.40;74.90;;;;;;4995360;28;20060;-85
2024/04/01 00:29:58;;;;;;;41.58;7.03;;;12.50;74.10;;;;;;4995075;28;20141;-86
2024/04/01 00:32:24;;;;;;;35.38;6.57;;;12.60;73.70;;;;;;4995099;28;20092;-86
2024/04/01 00:34:49;;;;;;;33.33;7.13;;;12.60;73.50;;;;;;4995103;28;20026;-86
2024/04/01 00:37:15;;;;;;;29.98;6.80;;;12.60;73.20;;;;;;5012426;28;20030;-86
2024/04/01 00:39:41;;;;;;;33.80;5.50;;;12.70;72.90;;;;;;4994809;28;20121;-86
2024/04/01 00:42:06;;;;;;;26.13;6.18;;;12.70;72.70;;;;;;5010663;28;20683;-86
2024/04/01 00:44:32;;;;;;;34.17;6.72;;;12.70;72.60;;;;;;5012899;28;20451;-86
2024/04/01 00:46:58;;;;;;;33.33;6.15;;;12.70;72.30;;;;;;4994148;28;20510;-86
2024/04/01 00:49:25;;;;;;;29.42;6.85;;;12.70;72.40;;;;;;5011951;28;20479;-86
2024/04/01 00:51:52;;;;;;;30.70;5.35;;;12.70;72.50;;;;;;4993949;28;20030;-86
2024/04/01 00:54:18;;;;;;;34.40;7.05;;;12.70;72.30;;;;;;5011536;28;20033;-86
2024/04/01 00:56:46;;;;;;;34.17;7.32;;;12.70;72.30;;;;;;5012108;28;20395;-86
2024/04/01 00:59:18;;;;;;;35.78;7.35;;;12.70;72.50;;;;;;5011034;28;20029;-86
2024/04/01 01:01:46;;;;;;;28.00;6.47;;;12.60;73.00;;;;;;5012220;28;20033;-88
2024/04/01 01:04:13;;;;;;;30.38;6.63;;;12.50;73.50;;;;;;4994131;28;20762;-88
2024/04/01 01:06:39;;;;;;;28.85;5.88;;;12.40;73.50;;;;;;5011429;28;20041;-88
2024/04/01 01:09:05;;;;;;;32.00;7.55;;;12.30;73.70;;;;;;4993906;28;20026;-88
2024/04/01 01:11:31;;;;;;;27.80;6.22;;;12.30;73.90;;;;;;5012751;28;20472;-89
2024/04/01 01:13:57;;;;;;;34.00;6.18;;;12.20;74.10;;;;;;4999038;28;20491;-89
2024/04/01 01:16:23;;;;;;;34.03;6.53;;;12.20;75.00;;;;;;4999584;28;20041;-89
2024/04/01 01:18:50;;;;;;;34.28;5.22;;;12.10;75.70;;;;;;5021480;28;20041;-89
2024/04/01 01:21:16;;;;;;;26.65;6.00;;;11.90;76.20;;;;;;5018862;28;20066;-89
2024/04/01 01:23:42;;;;;;;41.75;5.80;;;11.90;76.40;;;;;;5001060;28;20063;-87
2024/04/01 01:26:07;;;;;;;29.95;6.05;;;11.80;77.00;;;;;;5011389;28;20431;-87
2024/04/01 01:28:34;;;;;;;27.15;5.55;;;11.70;77.80;;;;;;5011457;28;20069;-88
2024/04/01 01:31:00;;;;;;;25.45;5.35;;;11.70;78.00;;;;;;4994389;28;20503;-88
2024/04/01 01:33:26;;;;;;;28.60;5.55;;;11.60;78.10;;;;;;4993665;28;20037;-87
2024/04/01 01:35:52;;;;;;;24.23;5.72;;;11.50;78.70;;;;;;4994742;28;20022;-87
2024/04/01 01:38:18;;;;;;;26.25;6.22;;;11.50;79.00;;;;;;4993980;28;20018;-87
2024/04/01 01:40:44;;;;;;;31.65;5.43;;;11.40;79.50;;;;;;4994365;28;20034;-88
2024/04/01 01:43:10;;;;;;;32.47;5.75;;;11.30;79.90;;;;;;4994055;28;20029;-88
2024/04/01 01:45:35;;;;;;;30.88;5.40;;;11.20;80.40;;;;;;4994074;28;20026;-88
2024/04/01 01:48:01;;;;;;;22.30;5.97;;;11.10;81.20;;;;;;5010388;28;20026;-88
2024/04/01 01:50:27;;;;;;;29.30;6.28;;;11.00;82.90;;;;;;4994238;28;20133;-91
2024/04/01 01:52:53;;;;;;;21.45;6.25;;;10.80;84.30;;;;;;4993824;28;20034;-90
2024/04/01 01:55:19;;;;;;;31.83;5.43;;;10.80;84.80;;;;;;5011509;28;20038;-91
2024/04/01 01:57:44;;;;;;;32.53;6.93;;;10.80;85.10;;;;;;4994629;28;20026;-90
2024/04/01 02:00:13;;;;;;;26.73;6.30;;;10.70;86.30;;;;;;4997936;28;20029;-90
2024/04/01 02:02:43;;;;;;;30.35;5.28;;;10.70;87.20;;;;;;4998482;28;20034;-89
2024/04/01 02:05:09;;;;;;;25.20;5.20;;;10.60;88.00;;;;;;5015004;28;20042;-87
2024/04/01 02:07:35;;;;;;;19.98;4.45;;;10.50;88.10;;;;;;4997558;28;20053;-88
2024/04/01 02:10:01;;;;;;;31.98;5.65;;;10.40;88.80;;;;;;5015134;28;20065;-88
2024/04/01 02:12:27;;;;;;;22.83;4.95;;;10.30;90.10;;;;;;4997771;28;20041;-88
2024/04/01 02:14:53;;;;;;;26.13;6.45;;;10.20;90.40;;;;;;4998016;28;20044;-88
2024/04/01 02:17:19;;;;;;;37.40;4.95;;;10.20;91.30;;;;;;5015124;28;20058;-90
2024/04/01 02:19:45;;;;;;;35.28;6.75;;;10.20;92.50;;;;;;5008373;28;20080;-91
2024/04/01 02:22:16;;;;;;;22.13;5.65;;;10.20;92.60;;;;;;5014900;28;20060;-91
2024/04/01 02:24:43;;;;;;;31.80;6.32;;;10.20;93.10;;;;;;4997801;28;20045;-91
2024/04/01 02:27:11;;;;;;;20.45;5.28;;;10.20;93.60;;;;;;4997552;28;20040;-90
2024/04/01 02:29:38;;;;;;;36.40;6.43;;;10.20;92.90;;;;;;4997613;28;20092;-89
2024/04/01 02:32:04;;;;;;;34.92;6.32;;;10.10;93.40;;;;;;5002724;28;20030;-89
2024/04/01 02:34:30;;;;;;;27.33;4.90;;;10.00;93.90;;;;;;4997252;28;20361;-89
2024/04/01 02:36:56;;;;;;;28.73;5.60;;;10.00;94.90;;;;;;4997253;28;20160;-90
2024/04/01 02:39:22;;;;;;;30.10;6.78;;;9.90;94.90;;;;;;4996794;28;20026;-89
2024/04/01 02:41:49;;;;;;;31.02;5.22;;;9.90;95.60;;;;;;4997929;28;20379;-90
2024/04/01 02:44:16;;;;;;;25.50;5.05;;;9.90;96.20;;;;;;4997266;28;20026;-91
2024/04/01 02:46:42;;;;;;;26.60;5.78;;;10.10;98.00;;;;;;5002612;28;20025;-91
2024/04/01 02:49:11;;;;;;;26.15;5.90;;;10.10;97.80;;;;;;5014443;28;20512;-90
2024/04/01 02:51:37;;;;;;;27.13;5.53;;;10.20;97.50;;;;;;4997336;28;20025;-92
2024/04/01 02:54:03;;;;;;;38.53;5.90;;;10.30;97.20;;;;;;4996815;28;20022;-91
2024/04/01 02:56:29;;;;;;;25.23;5.72;;;10.50;96.20;;;;;;4997611;28;20036;-91
2024/04/01 02:58:55;;;;;;;25.98;5.80;;;10.50;95.10;;;;;;5014511;28;20488;-91
2024/04/01 03:01:21;;;;;;;31.38;5.07;;;10.60;94.40;;;;;;4996973;28;20113;-91
2024/04/01 03:03:47;;;;;;;25.02;6.30;;;10.60;93.50;;;;;;5014521;28;20446;-91
2024/04/01 03:06:13;;;;;;;25.25;5.38;;;10.70;93.10;;;;;;4996541;28;20053;-91
2024/04/01 03:08:39;;;;;;;23.88;5.25;;;10.60;91.80;;;;;;4997053;28;20022;-92
2024/04/01 03:11:05;;;;;;;31.45;5.75;;;10.50;92.20;;;;;;4995792;28;20511;-92
2024/04/01 03:13:31;;;;;;;27.55;6.15;;;10.40;92.70;;;;;;4996514;28;20431;-92
2024/04/01 03:15:57;;;;;;;25.80;5.75;;;10.40;93.40;;;;;;5017655;28;20095;-91
2024/04/01 03:18:24;;;;;;;33.42;6.22;;;10.30;94.40;;;;;;5018228;28;20038;-90
2024/04/01 03:20:54;;;;;;;27.48;5.45;;;10.30;95.30;;;;;;5013242;28;20468;-90
2024/04/01 03:23:19;;;;;;;27.60;5.00;;;10.30;96.10;;;;;;4996110;28;20094;-91
2024/04/01 03:25:52;;;;;;;39.38;4.78;;;10.30;96.10;;;;;;4995102;28;20160;-89
2024/04/01 03:28:18;;;;;;;27.70;4.50;;;10.40;96.00;;;;;;5013946;28;20030;-90
2024/04/01 03:30:45;;;;;;;27.35;5.22;;;10.40;95.40;;;;;;5013537;28;20062;-91
2024/04/01 03:33:12;;;;;;;23.65;5.45;;;10.40;94.90;;;;;;5014123;28;20028;-90
2024/04/01 03:35:41;;;;;;;24.15;4.85;;;10.40;94.50;;;;;;4997005;28;20025;-90
2024/04/01 03:38:08;;;;;;;31.63;5.03;;;10.40;94.50;;;;;;4996108;28;20448;-90
2024/04/01 03:40:41;;;;;;;28.50;5.60;;;10.50;95.60;;;;;;5013588;28;20124;-89
2024/04/01 03:43:08;;;;;;;22.55;5.70;;;10.50;95.70;;;;;;5013177;28;20045;-89
2024/04/01 03:45:34;;;;;;;25.75;5.50;;;10.40;95.60;;;;;;4995870;28;20030;-90
2024/04/01 03:48:01;;;;;;;23.70;5.03;;;10.50;95.90;;;;;;4995837;28;20040;-89
2024/04/01 03:50:27;;;;;;;22.33;4.20;;;10.50;95.60;;;;;;5014008;28;20483;-89
2024/04/01 03:52:53;;;;;;;29.45;5.70;;;10.50;96.80;;;;;;4995708;28;20038;-89
2024/04/01 03:55:19;;;;;;;32.53;5.70;;;10.40;95.80;;;;;;5013231;28;20035;-89
2024/04/01 03:57:44;;;;;;;28.63;5.25;;;10.30;96.10;;;;;;5013240;28;20061;-88
2024/04/01 04:00:11;;;;;;;28.25;7.57;;;10.30;97.40;;;;;;5012433;28;20038;-88
2024/04/01 04:02:36;;;;;;;28.92;4.72;;;10.30;97.90;;;;;;4996166;28;20499;-89
2024/04/01 04:05:02;;;;;;;14.25;4.80;;;10.20;97.80;;;;;;5012926;28;20109;-89
2024/04/01 04:07:28;;;;;;;26.08;4.93;;;10.20;98.10;;;;;;4995265;28;20026;-89
2024/04/01 04:09:54;;;;;;;21.85;5.25;;;10.00;97.50;;;;;;4995293;28;20092;-89
2024/04/01 04:12:19;;;;;;;20.67;4.57;;;10.00;98.10;;;;;;4995590;28;20104;-89
2024/04/01 04:14:45;;;;;;;30.67;4.97;;;9.90;99.90;;;;;;5013340;28;20764;-88
2024/04/01 04:17:11;;;;;;;26.33;5.47;;;9.90;99.90;;;;;;4995301;28;20120;-88
2024/04/01 04:19:36;;;;;;;29.75;5.60;;;9.90;99.90;;;;;;5012855;28;20034;-88
2024/04/01 04:22:02;;;;;;;28.00;5.70;;;9.80;99.90;;;;;;4994681;28;20034;-88
2024/04/01 04:24:28;;;;;;;28.52;4.93;;;9.80;99.90;;;;;;5012410;28;20030;-89
2024/04/01 04:26:53;;;;;;;28.17;5.53;;;9.90;99.90;;;;;;4996131;28;20029;-89
2024/04/01 04:29:19;;;;;;;28.40;5.88;;;9.90;99.90;;;;;;4994844;28;20443;-89
2024/04/01 04:31:54;;;;;;;30.60;5.13;;;9.90;99.90;;;;;;5012603;28;20053;-89
2024/04/01 04:34:23;;;;;;;18.98;5.05;;;10.00;99.90;;;;;;5012391;28;20026;-89
2024/04/01 04:36:50;;;;;;;23.77;5.18;;;10.00;99.90;;;;;;4994567;28;20044;-89
2024/04/01 04:39:24;;;;;;;22.85;5.20;;;10.00;99.90;;;;;;4994845;28;22970;-90
2024/04/01 04:41:51;;;;;;;22.90;5.43;;;10.10;99.90;;;;;;5012945;28;20022;-88
2024/04/01 04:44:17;;;;;;;24.65;4.85;;;10.00;99.90;;;;;;5011104;28;20129;-89
2024/04/01 04:46:42;;;;;;;22.02;4.55;;;9.80;99.60;;;;;;4994458;28;20160;-87
2024/04/01 04:49:08;;;;;;;20.42;5.43;;;9.70;99.90;;;;;;5012193;28;20053;-86
2024/04/01 04:51:33;;;;;;;21.60;5.40;;;9.70;99.90;;;;;;5012427;28;20026;-88
2024/04/01 04:54:00;;;;;;;25.95;5.68;;;9.70;99.90;;;;;;5012465;28;20017;-87
2024/04/01 04:56:26;;;;;;;30.92;5.05;;;9.80;99.90;;;;;;4994860;28;20026;-88
2024/04/01 04:58:53;;;;;;;30.70;5.65;;;9.90;99.90;;;;;;4994229;28;20049;-88
2024/04/01 05:01:25;;;;;;;28.25;6.32;;;10.00;99.90;;;;;;4994735;28;20026;-88
2024/04/01 05:03:51;;;;;;;35.88;7.00;;;10.30;99.90;;;;;;4994398;28;20505;-88
2024/04/01 05:06:17;;;;;;;38.28;6.07;;;10.50;99.90;;;;;;4994527;28;20034;-88
2024/04/01 05:08:42;;;;;;;31.92;6.93;;;10.80;99.90;;;;;;5012711;28;20025;-90
2024/04/01 05:11:08;;;;;;;42.05;6.40;;;11.10;99.90;;;;;;5012323;28;20064;-90
2024/04/01 05:13:35;;;;;;;24.85;5.75;;;11.40;99.90;;;;;;5011898;28;20026;-92
2024/04/01 05:16:03;;;;;;;37.70;6.20;;;11.50;99.90;;;;;;5012204;28;20042;-93
2024/04/01 05:18:29;;;;;;;40.45;6.30;;;11.70;99.90;;;;;;5011056;28;20061;-93
2024/04/01 05:20:54;;;;;;;31.20;6.50;;;11.80;98.00;;;;;;5012928;28;20026;-92
2024/04/01 05:23:20;;;;;;;40.10;7.72;;;12.00;96.40;;;;;;4994807;28;20387;-91
2024/04/01 05:25:46;;;;;;;32.40;6.50;;;12.20;95.40;;;;;;4994700;28;20141;-91
2024/04/01 05:28:12;;;;;;;30.95;6.35;;;12.40;93.70;;;;;;5011676;28;20034;-91
2024/04/01 05:30:37;;;;;;;36.08;6.07;;;12.50;91.20;;;;;;4994055;28;20128;-90
2024/04/01 05:33:03;;;;;;;35.47;6.78;;;12.60;88.10;;;;;;4998627;28;20098;-89
2024/04/01 05:35:33;;;;;;;33.90;6.78;;;12.70;87.10;;;;;;4994711;28;20033;-90
2024/04/01 05:37:59;;;;;;;39.88;6.80;;;12.90;86.10;;;;;;5011568;28;20038;-89
2024/04/01 05:40:26;;;;;;;36.03;7.00;;;13.00;85.00;;;;;;4993860;28;20037;-89
2024/04/01 05:42:52;;;;;;;36.97;7.05;;;13.10;84.40;;;;;;5012021;28;20504;-89
2024/04/01 05:45:18;;;;;;;25.65;7.22;;;13.30;83.50;;;;;;5011540;28;20473;-88
2024/04/01 05:47:43;;;;;;;42.03;8.38;;;13.40;83.10;;;;;;4994582;28;20025;-90
2024/04/01 05:50:09;;;;;;;41.28;7.50;;;13.50;82.40;;;;;;4994023;28;20046;-90
2024/04/01 05:52:35;;;;;;;28.25;6.68;;;13.70;81.70;;;;;;5011439;28;20030;-89
2024/04/01 05:55:02;;;;;;;39.63;7.05;;;13.80;81.60;;;;;;5010386;28;20044;-88
2024/04/01 05:57:28;;;;;;;42.15;8.57;;;13.90;81.50;;;;;;4993844;28;20484;-88
2024/04/01 05:59:56;;;;;;;40.42;9.07;;;14.10;81.50;;;;;;4993860;28;20030;-88
2024/04/01 06:02:22;;;;;;;42.70;8.70;;;14.10;80.70;;;;;;4994288;28;20108;-88
2024/04/01 06:04:48;;;;;;;43.80;10.18;;;14.20;79.90;;;;;;4993750;28;20128;-88
2024/04/01 06:07:14;;;;;;;53.83;8.85;;;14.20;79.50;;;;;;5011393;28;20030;-88
2024/04/01 06:09:39;;;;;;;52.67;7.93;;;14.30;79.80;;;;;;4993862;28;20129;-87
2024/04/01 06:12:05;;;;;;;44.72;9.18;;;14.40;79.50;;;;;;5011288;28;20018;-87
2024/04/01 06:14:31;;;;;;;46.13;8.68;;;14.40;80.20;;;;;;4994196;28;20026;-87
2024/04/01 06:16:57;;;;;;;40.08;8.52;;;14.40;79.70;;;;;;4993210;28;20124;-89
2024/04/01 06:19:22;;;;;;;44.60;8.63;;;14.40;79.60;;;;;;5010364;28;20087;-87
2024/04/01 06:21:48;;;;;;;52.28;9.80;;;14.50;79.20;;;;;;4993830;28;20577;-86
2024/04/01 06:24:14;;;;;;;47.63;8.25;;;14.50;78.40;;;;;;5011217;28;20030;-87
2024/04/01 06:26:39;;;;;;;44.65;8.05;;;14.60;78.10;;;;;;4994547;28;20018;-88
2024/04/01 06:29:06;;;;;;;41.05;7.25;;;14.60;78.30;;;;;;4992901;28;20037;-86
2024/04/01 06:31:32;;;;;;;41.88;8.45;;;14.60;79.10;;;;;;5010390;28;20034;-84
2024/04/01 06:33:58;;;;;;;41.88;8.32;;;14.70;79.50;;;;;;4993187;28;20037;-85
2024/04/01 06:36:24;;;;;;;40.95;7.72;;;14.70;79.80;;;;;;5010611;28;20037;-86
2024/04/01 06:38:50;;;;;;;46.40;8.52;;;14.70;80.10;;;;;;4986803;28;20464;-87
2024/04/01 06:41:16;;;;;;;39.63;9.40;;;14.80;81.20;;;;;;5016168;28;20038;-87
2024/04/01 06:43:42;;;;;;;49.30;7.88;;;14.80;81.60;;;;;;4993644;28;20042;-87
2024/04/01 06:46:08;;;;;;;38.20;7.32;;;14.80;81.40;;;;;;5009616;28;20084;-87
2024/04/01 06:48:34;;;;;;;51.67;7.53;;;14.80;80.30;;;;;;5007619;28;20084;-88
2024/04/01 06:51:00;;;;;;;36.58;7.32;;;14.80;79.60;;;;;;4996586;28;20036;-87
2024/04/01 06:53:26;;;;;;;45.05;7.72;;;14.80;78.70;;;;;;5007434;28;20018;-87
2024/04/01 06:55:52;;;;;;;40.70;7.45;;;14.90;78.30;;;;;;5000487;28;20040;-86
2024/04/01 06:58:18;;;;;;;44.50;7.57;;;15.00;78.00;;;;;;5008181;28;20506;-89
2024/04/01 07:00:44;;;;;;;40.58;8.27;;;15.10;76.90;;;;;;5003707;28;20034;-85
2024/04/01 07:03:10;;;;;;;37.92;7.25;;;15.40;76.70;;;;;;5005660;28;20475;-84
2024/04/01 07:05:36;;;;;;;43.28;7.85;;;15.60;77.00;;;;;;5014313;28;20029;-84
2024/04/01 07:08:02;;;;;;;29.50;6.15;;;15.90;75.20;;;;;;5003006;28;20092;-84
2024/04/01 07:10:29;;;;;;;39.88;8.25;;;16.30;72.50;;;;;;4993036;28;20548;-84
2024/04/01 07:12:56;;;;;;;36.00;7.70;;;16.60;71.20;;;;;;5001124;28;20121;-84
2024/04/01 07:15:21;;;;;;;33.42;8.13;;;16.90;69.40;;;;;;5011334;28;20033;-84
2024/04/01 07:17:47;;;;;;;34.60;7.20;;;17.10;69.20;;;;;;5011298;28;20054;-84
2024/04/01 07:20:13;;;;;;;35.38;6.50;;;17.20;67.80;;;;;;5001216;28;20089;-86
2024/04/01 07:22:39;;;;;;;47.15;7.85;;;17.20;66.10;;;;;;4998562;28;20035;-85
2024/04/01 07:25:06;;;;;;;34.75;7.28;;;17.40;65.60;;;;;;4995435;28;20064;-85
2024/04/01 07:27:34;;;;;;;28.30;6.78;;;17.60;65.70;;;;;;5006994;28;20037;-85
2024/04/01 07:30:04;;;;;;;46.42;8.80;;;17.70;66.20;;;;;;4992319;28;20027;-85
2024/04/01 07:32:30;;;;;;;47.72;9.77;;;18.00;64.90;;;;;;5001845;28;20097;-84
2024/04/01 07:34:57;;;;;;;48.22;10.32;;;18.20;63.60;;;;;;5013759;28;20041;-85
2024/04/01 07:37:23;;;;;;;43.88;9.27;;;18.40;63.40;;;;;;4995046;28;20030;-83
2024/04/01 07:39:49;;;;;;;56.38;9.77;;;18.40;61.90;;;;;;4995947;28;20087;-83
2024/04/01 07:42:15;;;;;;;43.08;8.43;;;18.30;62.20;;;;;;4994820;28;20172;-84
2024/04/01 07:44:41;;;;;;;43.72;9.10;;;18.30;61.90;;;;;;5013120;28;20097;-83
2024/04/01 07:47:06;;;;;;;38.38;7.88;;;18.20;61.10;;;;;;4993705;28;20460;-81
2024/04/01 07:49:33;;;;;;;48.25;8.70;;;18.40;61.60;;;;;;5007738;28;20069;-81
2024/04/01 07:51:59;;;;;;;48.22;9.85;;;18.50;61.20;;;;;;4995172;28;20057;-86
2024/04/01 07:54:26;;;;;;;55.95;9.63;;;18.50;61.60;;;;;;4995148;28;20026;-85
2024/04/01 07:56:52;;;;;;;50.35;10.10;;;18.50;61.10;;;;;;4994001;28;20026;-84
2024/04/01 07:59:18;;;;;;;45.72;8.48;;;18.50;60.80;;;;;;4976197;28;20091;-82
2024/04/01 08:01:43;;;;;;;60.95;10.20;;;18.60;60.80;;;;;;4991476;28;20113;-82
2024/04/01 08:04:09;;;;;;;44.97;10.23;;;18.70;60.80;;;;;;5000018;28;20038;-82
2024/04/01 08:06:34;;;;;;;44.95;9.40;;;18.70;61.40;;;;;;4992458;28;20554;-82
2024/04/01 08:09:00;;;;;;;69.53;13.70;;;18.80;62.00;;;;;;5008488;28;20021;-81
2024/04/01 08:11:26;;;;;;;53.70;12.10;;;18.80;60.30;;;;;;4999207;28;20017;-80
2024/04/01 08:13:51;;;;;;;62.60;15.05;;;18.80;60.10;;;;;;5008604;28;20030;-81
2024/04/01 08:16:17;;;;;;;65.03;11.18;;;18.90;61.40;;;;;;4983105;28;20046;-80
2024/04/01 08:18:42;;;;;;;45.75;10.38;;;19.10;60.00;;;;;;4996439;28;20081;-80
2024/04/01 08:21:08;;;;;;;43.92;9.38;;;19.50;60.00;;;;;;4999877;28;20030;-80
2024/04/01 08:23:34;;;;;;;58.47;12.30;;;19.60;59.50;;;;;;4992289;28;20042;-81
2024/04/01 08:25:59;;;;;;;51.30;12.15;;;19.70;58.40;;;;;;4994010;28;20117;-81
2024/04/01 08:28:25;;;;;;;57.45;11.98;;;19.80;58.00;;;;;;4992411;28;20121;-80
2024/04/01 08:30:50;;;;;;;52.78;9.35;;;19.80;57.20;;;;;;4995465;28;20042;-80
2024/04/01 08:33:17;;;;;;;45.08;9.40;;;19.90;57.40;;;;;;5006430;28;20571;-80
2024/04/01 08:35:43;;;;;;;57.13;11.07;;;19.90;57.90;;;;;;5000083;28;20037;-81
2024/04/01 08:38:09;;;;;;;48.72;10.65;;;19.90;57.70;;;;;;4995950;28;20096;-81
2024/04/01 08:40:46;;;;;;;50.90;11.00;;;20.00;57.60;;;;;;4997169;28;20038;-85
2024/04/01 08:43:17;;;;;;;58.85;11.45;;;20.00;57.30;;;;;;5011403;28;20484;-83
2024/04/01 08:45:44;;;;;;;52.35;10.20;;;20.10;56.50;;;;;;5009845;28;20033;-83
2024/04/01 08:48:12;;;;;;;47.13;9.93;;;20.30;56.90;;;;;;4993996;28;20495;-82
2024/04/01 08:50:55;;;;;;;51.15;10.90;;;20.40;57.10;;;;;;5009008;28;20038;-83
2024/04/01 08:53:39;;;;;;;52.80;11.52;;;20.50;56.50;;;;;;5012187;28;20885;-83
2024/04/01 08:56:07;;;;;;;58.42;12.18;;;20.70;55.40;;;;;;4986675;28;20042;-83
2024/04/01 08:58:34;;;;;;;55.80;11.00;;;20.80;55.70;;;;;;5012026;28;20364;-83
2024/04/01 09:01:00;;;;;;;49.17;9.48;;;21.00;55.40;;;;;;4992680;28;20087;-84
2024/04/01 09:03:26;;;;;;;61.50;12.35;;;21.10;55.20;;;;;;5011316;28;20025;-83
2024/04/01 09:05:54;;;;;;;58.30;11.73;;;21.10;55.00;;;;;;4994257;28;20562;-83
2024/04/01 09:08:20;;;;;;;63.35;11.43;;;21.10;54.30;;;;;;4992280;28;20038;-84
2024/04/01 09:10:46;;;;;;;51.03;9.40;;;21.20;54.40;;;;;;4993352;28;20038;-84
2024/04/01 09:13:13;;;;;;;52.20;9.43;;;21.30;54.90;;;;;;4993244;28;20041;-84
2024/04/01 09:15:40;;;;;;;63.72;10.93;;;21.40;54.60;;;;;;5011542;28;20061;-83
2024/04/01 09:18:11;;;;;;;54.85;9.73;;;21.40;54.20;;;;;;5007853;28;20030;-82
2024/04/01 09:20:39;;;;;;;57.90;11.15;;;21.60;54.10;;;;;;4994228;28;20037;-83
2024/04/01 09:23:05;;;;;;;64.72;10.52;;;21.60;53.50;;;;;;4994079;28;20022;-83
2024/04/01 09:25:31;;;;;;;53.67;10.90;;;21.60;53.00;;;;;;5011627;28;20510;-83
2024/04/01 09:27:56;;;;;;;50.40;11.32;;;21.60;52.70;;;;;;5011549;28;20396;-82
2024/04/01 09:30:22;;;;;;;61.15;11.27;;;21.70;52.40;;;;;;4993695;28;20039;-83
2024/04/01 09:32:48;;;;;;;54.38;10.82;;;21.90;53.50;;;;;;4994899;28;20427;-83
2024/04/01 09:35:14;;;;;;;57.15;12.30;;;22.00;52.40;;;;;;5009914;28;20033;-83
2024/04/01 09:37:40;;;;;;;63.92;11.82;;;21.90;51.50;;;;;;4993575;28;20022;-83
2024/04/01 09:40:06;;;;;;;55.90;13.13;;;21.80;51.00;;;;;;4993497;28;20049;-83
2024/04/01 09:42:33;;;;;;;65.10;12.48;;;21.80;51.20;;;;;;5011525;28;20025;-83
2024/04/01 09:44:59;;;;;;;70.50;11.63;;;21.80;51.80;;;;;;4994113;28;20030;-83
2024/04/01 09:47:26;;;;;;;63.08;11.38;;;22.20;51.40;;;;;;4994493;28;20076;-82
2024/04/01 09:49:53;;;;;;;60.85;13.43;;;22.40;50.70;;;;;;4993568;28;20038;-83
2024/04/01 09:52:19;;;;;;;59.13;11.48;;;22.50;50.20;;;;;;5010635;28;20468;-82
2024/04/01 09:54:53;;;;;;;61.92;12.68;;;22.50;49.50;;;;;;4993984;28;20121;-83
2024/04/01 09:57:37;;;;;;;86.32;12.70;;;22.60;49.40;;;;;;4993574;28;20034;-83
2024/04/01 10:00:11;;;;;;;61.63;11.90;;;22.80;49.30;;;;;;4989660;28;20049;-81
2024/04/01 10:03:21;;;;;;;63.28;12.50;;;22.90;49.70;;;;;;4993413;28;20112;-83
2024/04/01 10:06:09;;;;;;;62.17;11.63;;;23.00;48.90;;;;;;5004687;28;20041;-81
2024/04/01 10:09:01;;;;;;;59.40;11.02;;;22.90;48.20;;;;;;4977264;28;20407;-79
2024/04/01 10:11:38;;;;;;;56.25;11.57;;;23.00;48.30;;;;;;4986070;28;20555;-78
2024/04/01 10:14:25;;;;;;;59.55;10.98;;;23.00;48.10;;;;;;5003890;28;20034;-78
2024/04/01 10:17:17;;;;;;;63.33;10.48;;;23.00;48.20;;;;;;4985018;28;20062;-79
2024/04/01 10:19:58;;;;;;;65.10;12.07;;;23.10;48.10;;;;;;5004450;28;20057;-78
2024/04/01 10:22:42;;;;;;;47.33;10.02;;;23.20;49.40;;;;;;5004044;28;20480;-78
2024/04/01 10:26:05;;;;;;;70.65;12.20;;;23.10;48.10;;;;;;5005231;28;20038;-78
2024/04/01 10:28:43;;;;;;;54.25;10.27;;;23.20;47.80;;;;;;5003132;28;20038;-77
2024/04/01 10:31:41;;;;;;;53.40;11.45;;;23.20;47.80;;;;;;4998357;28;20131;-79
2024/04/01 10:34:18;;;;;;;60.10;10.77;;;23.30;47.30;;;;;;4987126;28;20117;-80
2024/04/01 10:36:53;;;;;;;56.42;11.48;;;23.30;46.80;;;;;;4995244;28;20029;-82
2024/04/01 10:39:51;;;;;;;65.78;11.10;;;23.30;46.90;;;;;;4994211;28;20026;-81
2024/04/01 10:42:57;;;;;;;62.97;12.70;;;23.30;47.70;;;;;;5010614;28;20539;-81
2024/04/01 10:45:55;;;;;;;58.25;12.75;;;23.40;47.20;;;;;;4992533;28;20129;-81
2024/04/01 10:48:31;;;;;;;58.65;11.13;;;23.40;47.60;;;;;;4989715;28;20407;-81
2024/04/01 10:51:16;;;;;;;61.15;10.52;;;23.40;47.40;;;;;;4995578;28;20045;-82
2024/04/01 10:54:03;;;;;;;51.88;11.07;;;23.50;47.60;;;;;;4996095;28;20022;-81
2024/04/01 10:56:58;;;;;;;50.55;11.43;;;23.50;47.40;;;;;;5005667;28;20151;-81
2024/04/01 10:59:46;;;;;;;76.07;11.57;;;23.40;47.00;;;;;;4993559;28;20042;-82
2024/04/01 11:02:47;;;;;;;62.10;12.65;;;23.40;47.30;;;;;;4995538;28;20110;-82
2024/04/01 11:05:51;;;;;;;55.38;10.43;;;23.40;47.50;;;;;;4994912;28;20034;-82
2024/04/01 11:08:31;;;;;;;57.72;11.35;;;23.40;47.20;;;;;;5007825;28;20113;-81
2024/04/01 11:11:35;;;;;;;46.20;10.85;;;23.30;46.60;;;;;;4994569;28;20045;-82
2024/04/01 11:14:02;;;;;;;51.03;10.32;;;23.40;46.80;;;;;;5012354;28;20117;-81
2024/04/01 11:16:32;;;;;;;52.55;10.93;;;23.50;46.90;;;;;;4994210;28;20381;-82
2024/04/01 11:19:36;;;;;;;62.05;11.60;;;23.60;47.30;;;;;;5013115;28;20045;-82
2024/04/01 11:22:04;;;;;;;57.50;11.23;;;23.70;46.60;;;;;;4988420;28;20037;-81
2024/04/01 11:24:36;;;;;;;55.58;11.13;;;23.90;46.60;;;;;;4993670;28;20423;-81
2024/04/01 11:27:19;;;;;;;58.50;11.45;;;23.90;45.80;;;;;;4994516;28;20053;-80
2024/04/01 11:30:10;;;;;;;54.47;10.35;;;24.00;45.70;;;;;;5007494;28;20052;-81
2024/04/01 11:32:40;;;;;;;67.22;13.07;;;24.10;45.40;;;;;;4993786;28;20052;-80
2024/04/01 11:35:23;;;;;;;56.45;11.32;;;24.10;45.10;;;;;;4995098;28;20037;-81
2024/04/01 11:38:18;;;;;;;60.97;10.48;;;24.20;44.50;;;;;;4994555;28;20034;-81
2024/04/01 11:40:45;;;;;;;65.38;10.60;;;24.30;44.50;;;;;;5010863;28;20437;-81
2024/04/01 11:43:14;;;;;;;55.28;11.18;;;24.30;44.70;;;;;;4993869;28;20486;-81
2024/04/01 11:45:43;;;;;;;60.53;10.85;;;24.30;44.80;;;;;;4994235;28;20042;-81
2024/04/01 11:48:12;;;;;;;53.28;10.88;;;24.20;44.10;;;;;;5009098;28;20498;-81
2024/04/01 11:50:51;;;;;;;55.25;10.75;;;24.10;44.10;;;;;;4990979;28;20377;-82
2024/04/01 11:53:17;;;;;;;49.30;9.10;;;24.10;44.10;;;;;;4994567;28;20607;-81
2024/04/01 11:55:58;;;;;;;63.88;11.00;;;24.20;44.80;;;;;;5011889;28;20030;-82
2024/04/01 11:58:25;;;;;;;53.08;10.65;;;24.20;44.30;;;;;;5011353;28;20058;-81
2024/04/01 12:00:55;;;;;;;49.97;9.82;;;24.10;44.30;;;;;;5011067;28;20038;-80
2024/04/01 12:03:22;;;;;;;51.55;9.85;;;24.20;44.20;;;;;;4993649;28;20038;-80
2024/04/01 12:05:52;;;;;;;50.45;10.88;;;24.20;44.60;;;;;;4993260;28;20041;-81
2024/04/01 12:08:20;;;;;;;59.55;11.00;;;24.20;44.20;;;;;;4996431;28;20034;-81
2024/04/01 12:10:46;;;;;;;54.83;9.88;;;24.30;44.90;;;;;;5012769;28;20046;-81
2024/04/01 12:13:15;;;;;;;51.53;11.52;;;24.30;44.20;;;;;;5021804;28;20152;-81
2024/04/01 12:15:45;;;;;;;42.15;9.65;;;24.30;44.50;;;;;;5010238;28;20061;-81
2024/04/01 12:18:14;;;;;;;41.85;10.90;;;24.40;43.70;;;;;;4993421;28;20030;-81
2024/04/01 12:20:40;;;;;;;40.90;10.18;;;24.40;43.80;;;;;;5017781;28;20392;-81
2024/04/01 12:23:10;;;;;;;54.40;10.25;;;24.30;44.40;;;;;;5011278;28;20030;-80
2024/04/01 12:25:37;;;;;;;48.47;9.70;;;24.20;44.40;;;;;;5004721;28;20026;-80
2024/04/01 12:28:04;;;;;;;44.20;9.35;;;24.20;45.30;;;;;;4993440;28;20138;-80
2024/04/01 12:30:37;;;;;;;48.03;9.73;;;24.10;44.10;;;;;;5013109;28;20038;-80
2024/04/01 12:33:05;;;;;;;51.58;9.20;;;24.10;44.00;;;;;;4992500;28;20476;-80
2024/04/01 12:35:32;;;;;;;48.30;9.45;;;24.00;43.80;;;;;;4994405;28;20023;-81
2024/04/01 12:38:05;;;;;;;46.15;9.77;;;24.00;44.50;;;;;;5010305;28;20030;-82
2024/04/01 12:40:45;;;;;;;43.00;9.57;;;24.00;44.80;;;;;;4992925;28;20099;-81
2024/04/01 12:43:14;;;;;;;46.45;9.93;;;23.90;43.80;;;;;;4990070;28;20044;-82
2024/04/01 12:45:41;;;;;;;46.85;9.82;;;23.80;44.60;;;;;;4991238;28;20098;-81